sensor_id;sensor_type;location;lat;lon;timestamp;pressure;altitude;pressure_sealevel;temperature;humidity
4133;BME280;2080;51.038;7.008;2022-07-29T00:00:59;75135.75;;;-142.53;63.07
4133;BME280;2080;51.038;7.008;2022-07-29T00:03:24;75131.88;;;-142.53;63.92
4133;BME280;2080;51.038;7.008;2022-07-29T00:05:55;75131.88;;;-142.53;64.60
4133;BME280;2080;51.038;7.008;2022-07-29T00:08:20;75135.75;;;-142.53;64.87
4133;BME280;2080;51.038;7.008;2022-07-29T00:10:46;75143.53;;;-142.53;65.55
4133;BME280;2080;51.038;7.008;2022-07-29T00:13:11;75139.63;;;-142.53;66.37
4133;BME280;2080;51.038;7.008;2022-07-29T00:15:37;75139.63;;;-142.53;66.43
4133;BME280;2080;51.038;7.008;2022-07-29T00:18:03;75139.63;;;-142.53;66.74
4133;BME280;2080;51.038;7.008;2022-07-29T00:20:28;75139.63;;;-142.53;67.46
4133;BME280;2080;51.038;7.008;2022-07-29T00:22:53;75131.88;;;-142.53;68.09
4133;BME280;2080;51.038;7.008;2022-07-29T00:25:21;75131.88;;;-142.53;68.47
4133;BME280;2080;51.038;7.008;2022-07-29T00:27:46;75131.88;;;-142.53;68.43
4133;BME280;2080;51.038;7.008;2022-07-29T00:30:16;75131.88;;;-142.53;68.92
4133;BME280;2080;51.038;7.008;2022-07-29T00:32:42;75135.75;;;-142.53;69.39
4133;BME280;2080;51.038;7.008;2022-07-29T00:35:07;75141.56;;;-142.53;69.96
4133;BME280;2080;51.038;7.008;2022-07-29T00:37:56;75137.69;;;-142.53;69.83
4133;BME280;2080;51.038;7.008;2022-07-29T00:40:25;75131.88;;;-142.53;70.08
4133;BME280;2080;51.038;7.008;2022-07-29T00:42:51;75135.75;;;-142.53;70.68
4133;BME280;2080;51.038;7.008;2022-07-29T00:45:18;75131.88;;;-142.53;71.28
4133;BME280;2080;51.038;7.008;2022-07-29T00:47:46;75141.56;;;-142.53;71.55
4133;BME280;2080;51.038;7.008;2022-07-29T00:50:12;75131.88;;;-142.53;71.78
4133;BME280;2080;51.038;7.008;2022-07-29T00:52:39;75129.94;;;-142.53;71.79
4133;BME280;2080;51.038;7.008;2022-07-29T00:55:10;75131.88;;;-142.53;72.13
4133;BME280;2080;51.038;7.008;2022-07-29T00:57:37;75131.88;;;-142.53;72.41
4133;BME280;2080;51.038;7.008;2022-07-29T01:00:08;75131.88;;;-142.53;72.33
4133;BME280;2080;51.038;7.008;2022-07-29T01:02:39;75129.94;;;-142.53;72.87
4133;BME280;2080;51.038;7.008;2022-07-29T01:05:05;75120.22;;;-142.53;72.92
4133;BME280;2080;51.038;7.008;2022-07-29T01:07:33;75120.22;;;-142.53;72.84
4133;BME280;2080;51.038;7.008;2022-07-29T01:10:03;75124.09;;;-142.53;73.06
4133;BME280;2080;51.038;7.008;2022-07-29T01:12:30;75124.09;;;-142.53;73.28
4133;BME280;2080;51.038;7.008;2022-07-29T01:15:01;75131.88;;;-142.53;73.43
4133;BME280;2080;51.038;7.008;2022-07-29T01:31:10;75139.63;;;-142.53;77.01
4133;BME280;2080;51.038;7.008;2022-07-29T01:33:46;75135.75;;;-142.53;77.22
4133;BME280;2080;51.038;7.008;2022-07-29T01:36:23;75135.75;;;-142.53;76.79
4133;BME280;2080;51.038;7.008;2022-07-29T01:39:18;75135.75;;;-142.53;76.44
4133;BME280;2080;51.038;7.008;2022-07-29T01:44:37;75120.22;;;-142.53;75.62
4133;BME280;2080;51.038;7.008;2022-07-29T01:47:17;75120.22;;;-142.53;75.82
4133;BME280;2080;51.038;7.008;2022-07-29T01:49:48;75116.34;;;-142.53;76.09
4133;BME280;2080;51.038;7.008;2022-07-29T01:52:39;75122.16;;;-142.53;76.09
4133;BME280;2080;51.038;7.008;2022-07-29T01:55:13;75120.22;;;-142.53;76.91
4133;BME280;2080;51.038;7.008;2022-07-29T01:57:40;75120.22;;;-142.53;77.52
4133;BME280;2080;51.038;7.008;2022-07-29T02:00:07;75124.09;;;-142.53;77.88
4133;BME280;2080;51.038;7.008;2022-07-29T02:02:38;75129.94;;;-142.53;78.09
4133;BME280;2080;51.038;7.008;2022-07-29T02:05:07;75135.75;;;-142.53;78.22
4133;BME280;2080;51.038;7.008;2022-07-29T02:07:36;75135.75;;;-142.53;77.45
4133;BME280;2080;51.038;7.008;2022-07-29T02:10:03;75139.63;;;-142.53;76.96
4133;BME280;2080;51.038;7.008;2022-07-29T02:12:31;75127.97;;;-142.53;76.88
4133;BME280;2080;51.038;7.008;2022-07-29T02:14:59;75120.22;;;-142.53;76.74
4133;BME280;2080;51.038;7.008;2022-07-29T02:17:33;75122.16;;;-142.53;76.57
4133;BME280;2080;51.038;7.008;2022-07-29T02:20:02;75127.97;;;-142.53;76.47
4133;BME280;2080;51.038;7.008;2022-07-29T02:22:30;75129.94;;;-142.53;76.82
4133;BME280;2080;51.038;7.008;2022-07-29T02:25:00;75131.88;;;-142.53;77.34
4133;BME280;2080;51.038;7.008;2022-07-29T02:27:28;75131.88;;;-142.53;77.42
4133;BME280;2080;51.038;7.008;2022-07-29T02:30:00;75139.63;;;-142.53;77.77
4133;BME280;2080;51.038;7.008;2022-07-29T02:32:27;75143.53;;;-142.53;78.01
4133;BME280;2080;51.038;7.008;2022-07-29T02:34:53;75143.53;;;-142.53;77.99
4133;BME280;2080;51.038;7.008;2022-07-29T02:37:20;75141.56;;;-142.53;78.42
4133;BME280;2080;51.038;7.008;2022-07-29T02:39:46;75141.56;;;-142.53;78.67
4133;BME280;2080;51.038;7.008;2022-07-29T02:42:16;75139.63;;;-142.53;78.96
4133;BME280;2080;51.038;7.008;2022-07-29T02:44:44;75145.47;;;-142.53;80.09
4133;BME280;2080;51.038;7.008;2022-07-29T02:50:08;75143.53;;;-142.53;78.05
4133;BME280;2080;51.038;7.008;2022-07-29T02:55:37;75153.22;;;-142.53;79.30
4133;BME280;2080;51.038;7.008;2022-07-29T02:58:19;75155.16;;;-142.53;79.74
4133;BME280;2080;51.038;7.008;2022-07-29T03:00:48;75159.06;;;-142.53;79.72
4133;BME280;2080;51.038;7.008;2022-07-29T03:03:18;75168.75;;;-142.53;79.44
4133;BME280;2080;51.038;7.008;2022-07-29T03:05:46;75170.69;;;-142.53;78.43
4133;BME280;2080;51.038;7.008;2022-07-29T03:08:14;75174.59;;;-142.53;77.93
4133;BME280;2080;51.038;7.008;2022-07-29T03:10:44;75170.69;;;-142.53;76.80
4133;BME280;2080;51.038;7.008;2022-07-29T03:13:14;75170.69;;;-142.53;75.34
4133;BME280;2080;51.038;7.008;2022-07-29T03:15:43;75159.06;;;-142.53;74.66
4133;BME280;2080;51.038;7.008;2022-07-29T03:18:09;75153.22;;;-142.53;74.32
4133;BME280;2080;51.038;7.008;2022-07-29T03:20:37;75147.41;;;-142.53;74.45
4133;BME280;2080;51.038;7.008;2022-07-29T03:23:04;75151.28;;;-142.53;74.50
4133;BME280;2080;51.038;7.008;2022-07-29T03:25:31;75155.16;;;-142.53;74.69
4133;BME280;2080;51.038;7.008;2022-07-29T03:27:57;75161.00;;;-142.53;75.08
4133;BME280;2080;51.038;7.008;2022-07-29T03:30:23;75164.88;;;-142.53;75.10
4133;BME280;2080;51.038;7.008;2022-07-29T03:32:50;75155.16;;;-142.53;74.98
4133;BME280;2080;51.038;7.008;2022-07-29T03:35:15;75161.00;;;-142.53;74.76
4133;BME280;2080;51.038;7.008;2022-07-29T03:37:45;75162.94;;;-142.53;74.30
4133;BME280;2080;51.038;7.008;2022-07-29T03:40:16;75166.81;;;-142.53;74.19
4133;BME280;2080;51.038;7.008;2022-07-29T03:42:43;75166.81;;;-142.53;73.54
4133;BME280;2080;51.038;7.008;2022-07-29T03:45:15;75172.66;;;-142.53;73.11
4133;BME280;2080;51.038;7.008;2022-07-29T03:47:51;75164.88;;;-142.53;72.59
4133;BME280;2080;51.038;7.008;2022-07-29T03:50:18;75151.28;;;-142.53;71.28
4133;BME280;2080;51.038;7.008;2022-07-29T03:52:45;75155.16;;;-142.53;71.07
4133;BME280;2080;51.038;7.008;2022-07-29T03:55:15;75147.41;;;-142.53;71.04
4133;BME280;2080;51.038;7.008;2022-07-29T03:57:41;75149.34;;;-142.53;70.41
4133;BME280;2080;51.038;7.008;2022-07-29T04:00:08;75151.28;;;-142.53;70.22
4133;BME280;2080;51.038;7.008;2022-07-29T04:02:34;75145.47;;;-142.53;70.02
4133;BME280;2080;51.038;7.008;2022-07-29T04:05:03;75147.41;;;-142.53;69.28
4133;BME280;2080;51.038;7.008;2022-07-29T04:07:29;75139.63;;;-142.53;67.52
4133;BME280;2080;51.038;7.008;2022-07-29T04:09:54;75137.69;;;-142.53;67.17
4133;BME280;2080;51.038;7.008;2022-07-29T04:12:22;75137.69;;;-142.53;66.87
4133;BME280;2080;51.038;7.008;2022-07-29T04:14:48;75131.88;;;-142.53;66.24
4133;BME280;2080;51.038;7.008;2022-07-29T04:17:13;75135.75;;;-142.53;65.89
4133;BME280;2080;51.038;7.008;2022-07-29T04:19:39;75131.88;;;-142.53;66.07
4133;BME280;2080;51.038;7.008;2022-07-29T04:22:04;75139.63;;;-142.53;66.13
4133;BME280;2080;51.038;7.008;2022-07-29T04:24:34;75129.94;;;-142.53;65.96
4133;BME280;2080;51.038;7.008;2022-07-29T04:27:02;75133.81;;;-142.53;65.84
4133;BME280;2080;51.038;7.008;2022-07-29T04:29:27;75139.63;;;-142.53;65.91
4133;BME280;2080;51.038;7.008;2022-07-29T04:31:53;75145.47;;;-142.53;66.07
4133;BME280;2080;51.038;7.008;2022-07-29T04:34:20;75145.47;;;-142.53;66.08
4133;BME280;2080;51.038;7.008;2022-07-29T04:36:48;75155.16;;;-142.53;66.09
4133;BME280;2080;51.038;7.008;2022-07-29T04:39:13;75153.22;;;-142.53;66.26
4133;BME280;2080;51.038;7.008;2022-07-29T04:41:42;75151.28;;;-142.53;66.26
4133;BME280;2080;51.038;7.008;2022-07-29T04:44:07;75166.81;;;-142.53;66.48
4133;BME280;2080;51.038;7.008;2022-07-29T04:46:33;75166.81;;;-142.53;66.49
4133;BME280;2080;51.038;7.008;2022-07-29T04:48:59;75162.94;;;-142.53;66.62
4133;BME280;2080;51.038;7.008;2022-07-29T04:51:27;75159.06;;;-142.53;66.33
4133;BME280;2080;51.038;7.008;2022-07-29T04:53:55;75159.06;;;-142.53;66.44
4133;BME280;2080;51.038;7.008;2022-07-29T04:56:20;75155.16;;;-142.53;66.63
4133;BME280;2080;51.038;7.008;2022-07-29T04:58:45;75157.09;;;-142.53;66.14
4133;BME280;2080;51.038;7.008;2022-07-29T05:01:11;75151.28;;;-142.53;65.72
4133;BME280;2080;51.038;7.008;2022-07-29T05:03:36;75155.16;;;-142.53;65.87
4133;BME280;2080;51.038;7.008;2022-07-29T05:06:02;75151.28;;;-142.53;65.93
4133;BME280;2080;51.038;7.008;2022-07-29T05:08:27;75135.75;;;-142.53;65.41
4133;BME280;2080;51.038;7.008;2022-07-29T05:10:53;75147.41;;;-142.53;65.23
4133;BME280;2080;51.038;7.008;2022-07-29T05:13:20;75141.56;;;-142.53;65.28
4133;BME280;2080;51.038;7.008;2022-07-29T05:15:48;75131.88;;;-142.53;64.68
4133;BME280;2080;51.038;7.008;2022-07-29T05:18:14;75131.88;;;-142.53;64.60
4133;BME280;2080;51.038;7.008;2022-07-29T05:20:40;75139.63;;;-142.53;65.01
4133;BME280;2080;51.038;7.008;2022-07-29T05:23:05;75131.88;;;-142.53;64.71
4133;BME280;2080;51.038;7.008;2022-07-29T05:25:31;75112.44;;;-142.53;64.37
4133;BME280;2080;51.038;7.008;2022-07-29T05:27:56;75116.34;;;-142.53;63.66
4133;BME280;2080;51.038;7.008;2022-07-29T05:30:22;75112.44;;;-142.53;63.97
4133;BME280;2080;51.038;7.008;2022-07-29T05:32:49;75100.81;;;-142.53;63.80
4133;BME280;2080;51.038;7.008;2022-07-29T05:35:17;75089.16;;;-142.53;63.40
4133;BME280;2080;51.038;7.008;2022-07-29T05:37:42;75085.28;;;-142.53;63.47
4133;BME280;2080;51.038;7.008;2022-07-29T05:40:08;75077.50;;;-142.53;62.99
4133;BME280;2080;51.038;7.008;2022-07-29T05:42:39;75060.03;;;-142.53;62.82
4133;BME280;2080;51.038;7.008;2022-07-29T05:45:04;75054.19;;;-142.53;62.85
4133;BME280;2080;51.038;7.008;2022-07-29T05:47:30;75054.19;;;-142.53;62.58
4133;BME280;2080;51.038;7.008;2022-07-29T05:49:55;75040.63;;;-142.53;62.43
4133;BME280;2080;51.038;7.008;2022-07-29T05:52:21;75034.78;;;-142.53;62.46
4133;BME280;2080;51.038;7.008;2022-07-29T05:54:46;75023.13;;;-142.53;62.08
4133;BME280;2080;51.038;7.008;2022-07-29T05:57:20;75011.50;;;-142.53;62.28
4133;BME280;2080;51.038;7.008;2022-07-29T05:59:46;74999.84;;;-142.53;62.70
4133;BME280;2080;51.038;7.008;2022-07-29T06:02:12;74972.66;;;-142.53;62.22
4133;BME280;2080;51.038;7.008;2022-07-29T06:04:38;74949.38;;;-142.53;61.22
4133;BME280;2080;51.038;7.008;2022-07-29T06:07:03;74937.72;;;-142.53;60.82
4133;BME280;2080;51.038;7.008;2022-07-29T06:09:29;74929.94;;;-142.53;58.23
4133;BME280;2080;51.038;7.008;2022-07-29T06:11:54;74914.41;;;-142.53;58.44
4133;BME280;2080;51.038;7.008;2022-07-29T06:14:22;74922.19;;;-142.53;57.75
4133;BME280;2080;51.038;7.008;2022-07-29T06:16:47;74912.47;;;-142.53;57.22
4133;BME280;2080;51.038;7.008;2022-07-29T06:19:13;74902.75;;;-142.53;57.15
4133;BME280;2080;51.038;7.008;2022-07-29T06:21:44;74883.34;;;-142.53;57.23
4133;BME280;2080;51.038;7.008;2022-07-29T06:24:14;74863.94;;;-142.53;56.95
4133;BME280;2080;51.038;7.008;2022-07-29T06:26:42;74852.28;;;-142.53;57.07
4133;BME280;2080;51.038;7.008;2022-07-29T06:29:09;74834.81;;;-142.53;56.06
4133;BME280;2080;51.038;7.008;2022-07-29T06:31:36;74825.09;;;-142.53;55.53
4133;BME280;2080;51.038;7.008;2022-07-29T06:34:01;74827.03;;;-142.53;55.32
4133;BME280;2080;51.038;7.008;2022-07-29T06:36:29;74832.88;;;-142.53;54.51
4133;BME280;2080;51.038;7.008;2022-07-29T06:38:55;74844.53;;;-142.53;54.33
4133;BME280;2080;51.038;7.008;2022-07-29T06:41:22;74840.63;;;-142.53;54.19
4133;BME280;2080;51.038;7.008;2022-07-29T06:43:48;74834.81;;;-142.53;54.22
4133;BME280;2080;51.038;7.008;2022-07-29T06:46:17;74821.22;;;-142.53;54.20
4133;BME280;2080;51.038;7.008;2022-07-29T06:48:43;74815.41;;;-142.53;53.52
4133;BME280;2080;51.038;7.008;2022-07-29T06:51:10;74829.00;;;-142.53;53.91
4133;BME280;2080;51.038;7.008;2022-07-29T06:53:39;74832.88;;;-142.53;54.07
4133;BME280;2080;51.038;7.008;2022-07-29T06:56:06;74829.00;;;-142.53;54.95
4133;BME280;2080;51.038;7.008;2022-07-29T06:58:36;74827.03;;;-142.53;54.79
4133;BME280;2080;51.038;7.008;2022-07-29T07:01:06;74860.06;;;-142.53;54.87
4133;BME280;2080;51.038;7.008;2022-07-29T07:03:34;74871.69;;;-142.53;55.14
4133;BME280;2080;51.038;7.008;2022-07-29T07:06:01;74895.00;;;-142.53;55.29
4133;BME280;2080;51.038;7.008;2022-07-29T07:08:28;74914.41;;;-142.53;56.03
4133;BME280;2080;51.038;7.008;2022-07-29T07:10:56;74933.81;;;-142.53;56.95
4133;BME280;2080;51.038;7.008;2022-07-29T07:13:22;74945.47;;;-142.53;58.02
4133;BME280;2080;51.038;7.008;2022-07-29T07:15:48;74953.25;;;-142.53;58.43
4133;BME280;2080;51.038;7.008;2022-07-29T07:18:14;74959.06;;;-142.53;58.75
4133;BME280;2080;51.038;7.008;2022-07-29T07:20:41;74962.94;;;-142.53;59.11
4133;BME280;2080;51.038;7.008;2022-07-29T07:23:06;74964.88;;;-142.53;59.10
4133;BME280;2080;51.038;7.008;2022-07-29T07:25:32;74972.66;;;-142.53;59.98
4133;BME280;2080;51.038;7.008;2022-07-29T07:27:57;74982.38;;;-142.53;60.23
4133;BME280;2080;51.038;7.008;2022-07-29T07:30:23;74968.78;;;-142.53;61.33
4133;BME280;2080;51.038;7.008;2022-07-29T07:32:48;74949.38;;;-142.53;63.48
4133;BME280;2080;51.038;7.008;2022-07-29T07:35:14;74928.00;;;-142.53;63.21
4133;BME280;2080;51.038;7.008;2022-07-29T07:37:40;74922.19;;;-142.53;62.93
4133;BME280;2080;51.038;7.008;2022-07-29T07:40:11;74918.28;;;-142.53;62.70
4133;BME280;2080;51.038;7.008;2022-07-29T07:42:38;74935.78;;;-142.53;63.64
4133;BME280;2080;51.038;7.008;2022-07-29T07:45:06;74933.81;;;-142.53;65.04
4133;BME280;2080;51.038;7.008;2022-07-29T07:47:35;74968.78;;;-142.53;67.04
4133;BME280;2080;51.038;7.008;2022-07-29T07:50:02;74976.53;;;-142.53;64.92
4133;BME280;2080;51.038;7.008;2022-07-29T07:52:28;74992.06;;;-142.53;65.12
4133;BME280;2080;51.038;7.008;2022-07-29T07:54:53;74995.97;;;-142.53;65.34
4133;BME280;2080;51.038;7.008;2022-07-29T07:57:18;75001.78;;;-142.53;65.22
4133;BME280;2080;51.038;7.008;2022-07-29T07:59:46;74976.53;;;-142.53;66.62
4133;BME280;2080;51.038;7.008;2022-07-29T08:02:16;74955.19;;;-142.53;66.39
4133;BME280;2080;51.038;7.008;2022-07-29T08:04:46;74924.13;;;-142.53;68.33
4133;BME280;2080;51.038;7.008;2022-07-29T08:07:11;74906.66;;;-142.53;66.96
4133;BME280;2080;51.038;7.008;2022-07-29T08:09:44;74879.47;;;-142.53;67.02
4133;BME280;2080;51.038;7.008;2022-07-29T08:12:09;74863.94;;;-142.53;66.68
4133;BME280;2080;51.038;7.008;2022-07-29T08:14:34;74887.22;;;-142.53;65.45
4133;BME280;2080;51.038;7.008;2022-07-29T08:17:03;74889.19;;;-142.53;66.02
4133;BME280;2080;51.038;7.008;2022-07-29T08:19:31;74898.88;;;-142.53;66.62
4133;BME280;2080;51.038;7.008;2022-07-29T08:21:59;74904.72;;;-142.53;67.68
4133;BME280;2080;51.038;7.008;2022-07-29T08:24:26;74922.19;;;-142.53;67.76
4133;BME280;2080;51.038;7.008;2022-07-29T08:27:18;74926.06;;;-142.53;68.39
4133;BME280;2080;51.038;7.008;2022-07-29T08:29:46;74937.72;;;-142.53;70.74
4133;BME280;2080;51.038;7.008;2022-07-29T08:32:11;74918.28;;;-142.53;71.96
4133;BME280;2080;51.038;7.008;2022-07-29T08:34:39;74912.47;;;-142.53;74.69
4133;BME280;2080;51.038;7.008;2022-07-29T08:37:04;74906.66;;;-142.53;73.61
4133;BME280;2080;51.038;7.008;2022-07-29T08:39:32;74898.88;;;-142.53;74.00
4133;BME280;2080;51.038;7.008;2022-07-29T08:41:57;74914.41;;;-142.53;74.10
4133;BME280;2080;51.038;7.008;2022-07-29T08:44:25;74918.28;;;-142.53;74.84
4133;BME280;2080;51.038;7.008;2022-07-29T08:46:51;74902.75;;;-142.53;76.30
4133;BME280;2080;51.038;7.008;2022-07-29T08:49:17;74895.00;;;-142.53;75.36
4133;BME280;2080;51.038;7.008;2022-07-29T08:51:46;74898.88;;;-142.53;75.31
4133;BME280;2080;51.038;7.008;2022-07-29T08:54:17;74910.53;;;-142.53;75.96
4133;BME280;2080;51.038;7.008;2022-07-29T08:56:42;74902.75;;;-142.53;75.87
4133;BME280;2080;51.038;7.008;2022-07-29T08:59:09;74895.00;;;-142.53;76.11
4133;BME280;2080;51.038;7.008;2022-07-29T09:01:37;74885.28;;;-142.53;76.10
4133;BME280;2080;51.038;7.008;2022-07-29T09:04:04;74883.34;;;-142.53;75.48
4133;BME280;2080;51.038;7.008;2022-07-29T09:06:32;74873.63;;;-142.53;75.29
4133;BME280;2080;51.038;7.008;2022-07-29T09:09:00;74862.00;;;-142.53;74.91
4133;BME280;2080;51.038;7.008;2022-07-29T09:11:31;74854.22;;;-142.53;73.70
4133;BME280;2080;51.038;7.008;2022-07-29T09:13:57;74840.63;;;-142.53;72.62
4133;BME280;2080;51.038;7.008;2022-07-29T09:16:22;74821.22;;;-142.53;72.70
4133;BME280;2080;51.038;7.008;2022-07-29T09:18:48;74797.94;;;-142.53;72.28
4133;BME280;2080;51.038;7.008;2022-07-29T09:21:16;74776.56;;;-142.53;71.92
4133;BME280;2080;51.038;7.008;2022-07-29T09:24:07;74770.75;;;-142.53;71.64
4133;BME280;2080;51.038;7.008;2022-07-29T09:26:39;74770.75;;;-142.53;70.32
4133;BME280;2080;51.038;7.008;2022-07-29T09:29:15;74764.91;;;-142.53;70.21
4133;BME280;2080;51.038;7.008;2022-07-29T09:31:43;74751.34;;;-142.53;70.98
4133;BME280;2080;51.038;7.008;2022-07-29T09:34:15;74747.44;;;-142.53;71.58
4133;BME280;2080;51.038;7.008;2022-07-29T09:36:41;74755.22;;;-142.53;72.32
4133;BME280;2080;51.038;7.008;2022-07-29T09:39:09;74753.28;;;-142.53;72.24
4133;BME280;2080;51.038;7.008;2022-07-29T09:41:53;74747.44;;;-142.53;71.82
4133;BME280;2080;51.038;7.008;2022-07-29T09:44:22;74790.16;;;-142.53;71.88
4133;BME280;2080;51.038;7.008;2022-07-29T09:46:55;74795.97;;;-142.53;72.25
4133;BME280;2080;51.038;7.008;2022-07-29T09:49:21;74813.47;;;-142.53;72.55
4133;BME280;2080;51.038;7.008;2022-07-29T09:51:47;74805.69;;;-142.53;72.56
4133;BME280;2080;51.038;7.008;2022-07-29T09:54:25;74794.03;;;-142.53;73.48
4133;BME280;2080;51.038;7.008;2022-07-29T09:56:54;74792.09;;;-142.53;73.42
4133;BME280;2080;51.038;7.008;2022-07-29T09:59:20;74766.88;;;-142.53;72.70
4133;BME280;2080;51.038;7.008;2022-07-29T10:01:48;74728.03;;;-142.53;72.38
4133;BME280;2080;51.038;7.008;2022-07-29T10:04:14;74698.91;;;-142.53;71.65
4133;BME280;2080;51.038;7.008;2022-07-29T10:07:01;74685.31;;;-142.53;71.37
4133;BME280;2080;51.038;7.008;2022-07-29T10:09:30;74671.72;;;-142.53;70.51
4133;BME280;2080;51.038;7.008;2022-07-29T10:12:10;74654.25;;;-142.53;70.25
4133;BME280;2080;51.038;7.008;2022-07-29T10:14:37;74638.72;;;-142.53;69.75
4133;BME280;2080;51.038;7.008;2022-07-29T10:17:05;74619.31;;;-142.53;69.15
4133;BME280;2080;51.038;7.008;2022-07-29T10:19:31;74596.03;;;-142.53;68.02
4133;BME280;2080;51.038;7.008;2022-07-29T10:21:57;74597.97;;;-142.53;67.23
4133;BME280;2080;51.038;7.008;2022-07-29T10:24:28;74596.03;;;-142.53;66.21
4133;BME280;2080;51.038;7.008;2022-07-29T10:26:57;74623.19;;;-142.53;66.33
4133;BME280;2080;51.038;7.008;2022-07-29T10:29:24;74615.44;;;-142.53;65.85
4133;BME280;2080;51.038;7.008;2022-07-29T10:37:33;74596.03;;;-142.53;65.14
4133;BME280;2080;51.038;7.008;2022-07-29T10:43:19;74607.66;;;-142.53;64.77
4133;BME280;2080;51.038;7.008;2022-07-29T10:45:49;74601.84;;;-142.53;65.09
4133;BME280;2080;51.038;7.008;2022-07-29T10:48:22;74607.66;;;-142.53;65.23
4133;BME280;2080;51.038;7.008;2022-07-29T10:51:03;74574.66;;;-142.53;64.35
4133;BME280;2080;51.038;7.008;2022-07-29T10:53:50;74533.91;;;-142.53;63.62
4133;BME280;2080;51.038;7.008;2022-07-29T10:56:42;74502.84;;;-142.53;63.11
4133;BME280;2080;51.038;7.008;2022-07-29T11:01:50;74421.31;;;-142.53;60.50
4133;BME280;2080;51.038;7.008;2022-07-29T11:04:58;74382.47;;;-142.53;58.38
4133;BME280;2080;51.038;7.008;2022-07-29T11:09:31;74339.78;;;-142.53;55.33
4133;BME280;2080;51.038;7.008;2022-07-29T11:11:57;74316.47;;;-142.53;54.59
4133;BME280;2080;51.038;7.008;2022-07-29T11:17:21;74341.72;;;-142.53;52.35
4133;BME280;2080;51.038;7.008;2022-07-29T11:19:48;74339.78;;;-142.53;52.28
4133;BME280;2080;51.038;7.008;2022-07-29T11:22:32;74382.47;;;-142.53;53.02
4133;BME280;2080;51.038;7.008;2022-07-29T11:25:18;74361.13;;;-142.53;53.09
4133;BME280;2080;51.038;7.008;2022-07-29T11:27:44;74363.06;;;-142.53;53.76
4133;BME280;2080;51.038;7.008;2022-07-29T11:30:10;74370.84;;;-142.53;51.33
4133;BME280;2080;51.038;7.008;2022-07-29T11:32:42;74390.25;;;-142.53;52.13
4133;BME280;2080;51.038;7.008;2022-07-29T11:35:21;74394.13;;;-142.53;52.18
4133;BME280;2080;51.038;7.008;2022-07-29T11:38:24;74361.13;;;-142.53;51.36
4133;BME280;2080;51.038;7.008;2022-07-29T11:43:46;74332.00;;;-142.53;51.31
4133;BME280;2080;51.038;7.008;2022-07-29T11:46:13;74304.84;;;-142.53;51.18
4133;BME280;2080;51.038;7.008;2022-07-29T11:48:42;74308.72;;;-142.53;50.77
4133;BME280;2080;51.038;7.008;2022-07-29T11:51:13;74328.13;;;-142.53;50.96
4133;BME280;2080;51.038;7.008;2022-07-29T11:53:39;74316.47;;;-142.53;50.54
4133;BME280;2080;51.038;7.008;2022-07-29T11:56:08;74339.78;;;-142.53;51.31
4133;BME280;2080;51.038;7.008;2022-07-29T11:58:34;74332.00;;;-142.53;49.97
4133;BME280;2080;51.038;7.008;2022-07-29T12:01:00;74351.44;;;-142.53;51.15
4133;BME280;2080;51.038;7.008;2022-07-29T12:03:27;74328.13;;;-142.53;50.74
4133;BME280;2080;51.038;7.008;2022-07-29T12:05:53;74297.06;;;-142.53;49.15
4133;BME280;2080;51.038;7.008;2022-07-29T12:08:21;74269.91;;;-142.53;49.06
4133;BME280;2080;51.038;7.008;2022-07-29T12:10:49;74236.91;;;-142.53;48.23
4133;BME280;2080;51.038;7.008;2022-07-29T12:13:19;74223.31;;;-142.53;47.33
4133;BME280;2080;51.038;7.008;2022-07-29T12:15:56;74254.38;;;-142.53;45.47
4133;BME280;2080;51.038;7.008;2022-07-29T12:18:23;74252.44;;;-142.53;43.29
4133;BME280;2080;51.038;7.008;2022-07-29T12:20:59;74231.06;;;-142.53;43.86
4133;BME280;2080;51.038;7.008;2022-07-29T12:23:31;74242.72;;;-142.53;44.05
4133;BME280;2080;51.038;7.008;2022-07-29T12:25:57;74281.53;;;-142.53;44.13
4133;BME280;2080;51.038;7.008;2022-07-29T12:28:24;74300.97;;;-142.53;44.06
4133;BME280;2080;51.038;7.008;2022-07-29T12:30:49;74264.06;;;-142.53;44.23
4133;BME280;2080;51.038;7.008;2022-07-29T12:35:50;74273.78;;;-142.53;43.09
4133;BME280;2080;51.038;7.008;2022-07-29T12:38:17;74277.66;;;-142.53;43.13
4133;BME280;2080;51.038;7.008;2022-07-29T12:40:43;74258.25;;;-142.53;43.62
4133;BME280;2080;51.038;7.008;2022-07-29T12:43:11;74252.44;;;-142.53;43.30
4133;BME280;2080;51.038;7.008;2022-07-29T12:45:41;74266.00;;;-142.53;42.42
4133;BME280;2080;51.038;7.008;2022-07-29T12:48:09;74258.25;;;-142.53;42.28
4133;BME280;2080;51.038;7.008;2022-07-29T12:50:36;74269.91;;;-142.53;42.80
4133;BME280;2080;51.038;7.008;2022-07-29T12:53:12;74242.72;;;-142.53;42.26
4133;BME280;2080;51.038;7.008;2022-07-29T12:55:44;74246.59;;;-142.53;42.25
4133;BME280;2080;51.038;7.008;2022-07-29T12:58:14;74250.47;;;-142.53;42.30
4133;BME280;2080;51.038;7.008;2022-07-29T13:00:39;74203.91;;;-142.53;41.98
4133;BME280;2080;51.038;7.008;2022-07-29T13:03:07;74207.78;;;-142.53;42.18
4133;BME280;2080;51.038;7.008;2022-07-29T13:05:44;74180.59;;;-142.53;42.23
4133;BME280;2080;51.038;7.008;2022-07-29T13:08:17;74297.06;;;-142.53;44.00
4133;BME280;2080;51.038;7.008;2022-07-29T13:10:46;74258.25;;;-142.53;44.00
4133;BME280;2080;51.038;7.008;2022-07-29T13:13:17;74267.97;;;-142.53;44.01
4133;BME280;2080;51.038;7.008;2022-07-29T13:15:44;74234.97;;;-142.53;44.57
4133;BME280;2080;51.038;7.008;2022-07-29T13:18:33;74215.53;;;-142.53;42.35
4133;BME280;2080;51.038;7.008;2022-07-29T13:21:17;74215.53;;;-142.53;41.50
4133;BME280;2080;51.038;7.008;2022-07-29T13:23:42;74211.66;;;-142.53;41.56
4133;BME280;2080;51.038;7.008;2022-07-29T13:26:09;74178.66;;;-142.53;41.76
4133;BME280;2080;51.038;7.008;2022-07-29T13:28:36;74176.72;;;-142.53;41.24
4133;BME280;2080;51.038;7.008;2022-07-29T13:31:02;74221.38;;;-142.53;41.58
4133;BME280;2080;51.038;7.008;2022-07-29T13:33:27;74200.00;;;-142.53;41.44
4133;BME280;2080;51.038;7.008;2022-07-29T13:35:56;74174.78;;;-142.53;41.64
4133;BME280;2080;51.038;7.008;2022-07-29T13:38:22;74172.84;;;-142.53;40.77
4133;BME280;2080;51.038;7.008;2022-07-29T13:40:49;74196.13;;;-142.53;40.94
4133;BME280;2080;51.038;7.008;2022-07-29T13:43:14;74196.13;;;-142.53;41.19
4133;BME280;2080;51.038;7.008;2022-07-29T13:45:40;74151.50;;;-142.53;40.62
4133;BME280;2080;51.038;7.008;2022-07-29T13:48:06;74182.53;;;-142.53;40.88
4133;BME280;2080;51.038;7.008;2022-07-29T13:50:32;74242.72;;;-142.53;40.81
4133;BME280;2080;51.038;7.008;2022-07-29T13:53:00;74223.31;;;-142.53;41.07